Palo, Michigan
Current Conditions -  °F | °C
As of 2:54 AM on Friday 24 Oct 2014 (Local Time) from KY70 Reporting Station
Broken Clouds Broken Clouds  
Wind Chill: 45°   Ceiling: 8000
Heat Index: 45°   Visibility: 10mi
Dew Point: 41°   Wind: 3mph
Humidity: 86%   Direction: 200°SSW
Pressure: 30.06"   Gusts: NA
Location:  43.11°N, 84.99°W
Report Text: KY70 240654Z AUTO 20003KT 10SM BKN080 07/05 A3006 RMK AO2 T00710049
Loading
Personal Weather Stations






























Interactive Weather Map
Tropical Storm Tracking
New forecast layout! Learn more

10-Day Weather Forecast

Advertisements
Track Severe Weather on mobile